Time;durP1;ratioP1;P1;durP2;ratioP2;P2;SDS_P1;SDS_P2;PMS_P1;PMS_P2;Temp;Humidity;BMP_temperature;BMP_pressure;BME280_temperature;BME280_humidity;BME280_pressure;Samples;Min_cycle;Max_cycle;Signal;HPM_P1;HPM_P2
2022/07/03 00:00:46;;;;;;;3.20;2.42;;;;;;;;;;1777578;80;21059;-70
2022/07/03 00:03:12;;;;;;;3.98;2.30;;;;;;;;;;1770198;80;21056;-71
2022/07/03 00:05:38;;;;;;;3.08;2.10;;;;;;;;;;1765417;80;21524;-70
2022/07/03 00:08:05;;;;;;;4.22;2.40;;;;;;;;;;1768717;80;21081;-70
2022/07/03 00:10:32;;;;;;;4.70;2.40;;;;;;;;;;1755743;80;21588;-70
2022/07/03 00:13:00;;;;;;;5.58;2.60;;;;;;;;;;1765198;80;21042;-70
2022/07/03 00:15:25;;;;;;;4.37;2.50;;;;;;;;;;1760978;80;21073;-69
2022/07/03 00:17:51;;;;;;;5.45;2.40;;;;;;;;;;1690986;82;21037;-71
2022/07/03 00:20:18;;;;;;;5.47;2.75;;;;;;;;;;1759768;80;21099;-71
2022/07/03 00:22:44;;;;;;;3.67;2.12;;;;;;;;;;1741534;80;21048;-71
2022/07/03 00:25:10;;;;;;;4.97;2.50;;;;;;;;;;1760164;80;21110;-71
2022/07/03 00:27:37;;;;;;;4.72;2.42;;;;;;;;;;1765237;80;21092;-71
2022/07/03 00:30:04;;;;;;;6.35;2.80;;;;;;;;;;1763815;80;21104;-71
2022/07/03 00:32:30;;;;;;;3.47;2.25;;;;;;;;;;1758200;80;21037;-70
2022/07/03 00:34:57;;;;;;;3.25;2.10;;;;;;;;;;1762928;80;21516;-71
2022/07/03 00:37:23;;;;;;;3.50;2.60;;;;;;;;;;1763162;80;21507;-71
2022/07/03 00:39:49;;;;;;;3.40;2.35;;;;;;;;;;1762278;80;21020;-71
2022/07/03 00:42:16;;;;;;;4.22;2.30;;;;;;;;;;1778755;81;21034;-71
2022/07/03 00:44:44;;;;;;;4.35;2.27;;;;;;;;;;1778348;81;21565;-70
2022/07/03 00:47:12;;;;;;;4.17;2.50;;;;;;;;;;1753284;80;21104;-70
2022/07/03 00:49:39;;;;;;;3.62;2.45;;;;;;;;;;1767915;81;21076;-71
2022/07/03 00:52:08;;;;;;;3.95;2.45;;;;;;;;;;1778912;81;21049;-71
2022/07/03 00:54:37;;;;;;;3.10;2.55;;;;;;;;;;1778668;81;21096;-71
2022/07/03 00:57:03;;;;;;;4.28;2.12;;;;;;;;;;1763721;81;21477;-71
2022/07/03 00:59:30;;;;;;;6.05;2.52;;;;;;;;;;1749239;81;21136;-70
2022/07/03 01:04:51;;;;;;;3.33;2.30;;;;;;;;;;1721293;79;21413;-78
2022/07/03 01:07:20;;;;;;;4.35;2.50;;;;;;;;;;1672864;85;21066;-78
2022/07/03 01:09:47;;;;;;;4.00;2.30;;;;;;;;;;1690929;83;21542;-78
2022/07/03 01:12:29;;;;;;;4.90;2.20;;;;;;;;;;1746682;81;21573;-78
2022/07/03 01:14:57;;;;;;;5.28;2.70;;;;;;;;;;1743985;81;22080;-79
2022/07/03 01:17:27;;;;;;;4.33;2.25;;;;;;;;;;1744246;82;21527;-79
2022/07/03 01:19:55;;;;;;;5.97;2.90;;;;;;;;;;1741604;81;21112;-78
2022/07/03 01:22:37;;;;;;;3.87;2.20;;;;;;;;;;1745957;81;21072;-79
2022/07/03 01:25:14;;;;;;;4.87;2.40;;;;;;;;;;1743123;81;21019;-79
2022/07/03 01:27:54;;;;;;;4.45;2.42;;;;;;;;;;1744314;82;21052;-78
2022/07/03 01:30:20;;;;;;;3.52;2.35;;;;;;;;;;1746859;81;21063;-78
2022/07/03 01:32:46;;;;;;;3.47;2.37;;;;;;;;;;1738532;82;21092;-77
2022/07/03 01:35:13;;;;;;;3.60;2.60;;;;;;;;;;1744952;82;21072;-77
2022/07/03 01:37:40;;;;;;;3.55;2.40;;;;;;;;;;1745369;82;21024;-77
2022/07/03 01:40:07;;;;;;;4.62;2.40;;;;;;;;;;1747131;82;21048;-76
2022/07/03 01:42:34;;;;;;;5.55;2.58;;;;;;;;;;1744215;82;21496;-77
2022/07/03 01:45:00;;;;;;;3.45;2.42;;;;;;;;;;1745934;82;21080;-77
2022/07/03 01:47:26;;;;;;;4.12;2.50;;;;;;;;;;1745057;82;21031;-77
2022/07/03 01:49:52;;;;;;;3.80;2.25;;;;;;;;;;1746869;82;21044;-78
2022/07/03 01:52:19;;;;;;;4.53;2.50;;;;;;;;;;1746446;82;22219;-79
2022/07/03 01:54:46;;;;;;;3.58;2.35;;;;;;;;;;1744131;82;21092;-79
2022/07/03 01:57:12;;;;;;;4.53;2.58;;;;;;;;;;1745131;82;21083;-79
2022/07/03 01:59:38;;;;;;;4.50;2.45;;;;;;;;;;1744865;82;20981;-79
2022/07/03 02:02:08;;;;;;;5.67;2.40;;;;;;;;;;1746372;82;21076;-79
2022/07/03 02:10:19;;;;;;;4.20;2.27;;;;;;;;;;1693095;83;21096;-78
2022/07/03 02:12:49;;;;;;;4.55;2.42;;;;;;;;;;1698131;83;21608;-78
2022/07/03 02:15:20;;;;;;;3.70;2.58;;;;;;;;;;1696335;83;21117;-77
2022/07/03 02:17:48;;;;;;;3.50;2.50;;;;;;;;;;1678946;83;21116;-78
2022/07/03 02:20:15;;;;;;;3.27;2.37;;;;;;;;;;1679285;84;21063;-79
2022/07/03 02:22:44;;;;;;;4.92;2.37;;;;;;;;;;1686874;84;21075;-77
2022/07/03 02:25:15;;;;;;;4.08;2.35;;;;;;;;;;1709046;84;21083;-77
2022/07/03 02:27:42;;;;;;;5.05;2.58;;;;;;;;;;1689364;84;21507;-77
2022/07/03 02:30:10;;;;;;;4.00;2.77;;;;;;;;;;1706698;84;21118;-77
2022/07/03 02:32:38;;;;;;;5.42;2.77;;;;;;;;;;1651317;87;21055;-79
2022/07/03 02:35:09;;;;;;;4.67;2.25;;;;;;;;;;1673382;84;21650;-77
2022/07/03 02:37:37;;;;;;;4.37;2.55;;;;;;;;;;1677968;85;21059;-77
2022/07/03 02:40:04;;;;;;;3.67;2.52;;;;;;;;;;1675651;85;21075;-78
2022/07/03 02:42:34;;;;;;;7.28;2.62;;;;;;;;;;1708860;84;21070;-78
2022/07/03 02:45:01;;;;;;;3.35;2.27;;;;;;;;;;1689388;84;21143;-76
2022/07/03 02:47:42;;;;;;;3.60;2.22;;;;;;;;;;1679424;84;21106;-77
2022/07/03 02:50:09;;;;;;;3.92;2.22;;;;;;;;;;1710083;84;21059;-77
2022/07/03 02:52:43;;;;;;;4.97;2.20;;;;;;;;;;1712326;84;21562;-77
2022/07/03 02:55:28;;;;;;;3.67;2.65;;;;;;;;;;1705784;84;21099;-77
2022/07/03 02:58:02;;;;;;;3.83;2.30;;;;;;;;;;1712241;84;21537;-77
2022/07/03 03:00:28;;;;;;;5.45;2.90;;;;;;;;;;1695100;84;21125;-78
2022/07/03 03:02:55;;;;;;;3.30;2.30;;;;;;;;;;1691562;84;21044;-75
2022/07/03 03:05:23;;;;;;;4.10;2.40;;;;;;;;;;1763970;79;21702;-78
2022/07/03 03:07:57;;;;;;;7.03;2.35;;;;;;;;;;1781652;79;21021;-78
2022/07/03 03:10:23;;;;;;;3.58;2.45;;;;;;;;;;1735613;82;21088;-77
2022/07/03 03:12:58;;;;;;;4.85;2.62;;;;;;;;;;1731913;82;21084;-78
2022/07/03 03:15:25;;;;;;;5.08;2.45;;;;;;;;;;1769817;81;21139;-78
2022/07/03 03:17:52;;;;;;;5.47;2.58;;;;;;;;;;1753060;81;21574;-78
2022/07/03 03:20:18;;;;;;;4.75;2.70;;;;;;;;;;1751625;81;22312;-77
2022/07/03 03:22:46;;;;;;;5.03;2.30;;;;;;;;;;1752756;81;21040;-77
2022/07/03 03:25:13;;;;;;;3.55;2.45;;;;;;;;;;1752363;81;21043;-78
2022/07/03 03:27:40;;;;;;;5.15;2.30;;;;;;;;;;1752382;81;21059;-77
2022/07/03 03:30:07;;;;;;;3.17;2.12;;;;;;;;;;1755456;81;21550;-78
2022/07/03 03:32:36;;;;;;;4.53;2.20;;;;;;;;;;1755316;81;21099;-77
2022/07/03 03:35:03;;;;;;;3.50;2.10;;;;;;;;;;1752904;81;21511;-76
2022/07/03 03:37:29;;;;;;;3.95;2.35;;;;;;;;;;1755311;81;21581;-76
2022/07/03 03:39:56;;;;;;;4.08;2.60;;;;;;;;;;1751577;81;21060;-77
2022/07/03 03:42:22;;;;;;;2.55;1.87;;;;;;;;;;1735754;82;21052;-77
2022/07/03 03:44:48;;;;;;;4.90;2.47;;;;;;;;;;1707186;83;21056;-77
2022/07/03 03:47:14;;;;;;;3.08;2.10;;;;;;;;;;1702544;83;21084;-77
2022/07/03 03:49:40;;;;;;;5.58;2.37;;;;;;;;;;1732179;82;21025;-78
2022/07/03 03:52:06;;;;;;;3.83;2.60;;;;;;;;;;1730978;82;21044;-77
2022/07/03 03:54:32;;;;;;;3.62;2.27;;;;;;;;;;1735846;82;21224;-78
2022/07/03 03:57:01;;;;;;;2.92;1.98;;;;;;;;;;1752235;81;21032;-77
2022/07/03 03:59:27;;;;;;;3.12;2.10;;;;;;;;;;1751651;81;21048;-76
2022/07/03 04:01:55;;;;;;;3.50;2.00;;;;;;;;;;1733375;82;21619;-77
2022/07/03 04:04:22;;;;;;;3.10;2.00;;;;;;;;;;1730859;80;21146;-76
2022/07/03 04:06:48;;;;;;;4.62;2.10;;;;;;;;;;1742179;81;21527;-77
2022/07/03 04:09:14;;;;;;;3.30;2.10;;;;;;;;;;1750939;81;21060;-74
2022/07/03 04:11:40;;;;;;;4.40;2.40;;;;;;;;;;1749824;81;21088;-76
2022/07/03 04:14:07;;;;;;;4.58;2.25;;;;;;;;;;1745691;81;21114;-76
2022/07/03 04:16:34;;;;;;;5.58;2.00;;;;;;;;;;1746626;81;21137;-76
2022/07/03 04:19:00;;;;;;;2.75;1.90;;;;;;;;;;1718389;83;21111;-75
2022/07/03 04:21:26;;;;;;;3.70;2.08;;;;;;;;;;1714582;83;20986;-75
2022/07/03 04:23:53;;;;;;;4.67;1.98;;;;;;;;;;1710181;83;21055;-76
2022/07/03 04:26:19;;;;;;;4.58;2.05;;;;;;;;;;1716569;83;21559;-75
2022/07/03 04:28:44;;;;;;;3.55;2.15;;;;;;;;;;1719468;83;21016;-74
2022/07/03 04:31:10;;;;;;;7.80;2.40;;;;;;;;;;1729483;82;21036;-75
2022/07/03 04:33:37;;;;;;;4.00;2.02;;;;;;;;;;1729471;82;21083;-74
2022/07/03 04:36:04;;;;;;;2.42;1.87;;;;;;;;;;1729143;82;22218;-76
2022/07/03 04:38:31;;;;;;;3.40;2.02;;;;;;;;;;1695718;84;21093;-76
2022/07/03 04:40:57;;;;;;;6.00;2.12;;;;;;;;;;1701011;83;21010;-75
2022/07/03 04:43:24;;;;;;;4.97;2.20;;;;;;;;;;1701554;84;22272;-74
2022/07/03 04:45:50;;;;;;;3.08;2.05;;;;;;;;;;1746696;81;21557;-76
2022/07/03 04:48:16;;;;;;;4.75;2.10;;;;;;;;;;1751930;81;21073;-76
2022/07/03 04:50:42;;;;;;;4.53;2.20;;;;;;;;;;1750418;81;21033;-76
2022/07/03 04:53:08;;;;;;;7.25;2.33;;;;;;;;;;1742102;81;21028;-76
2022/07/03 04:55:34;;;;;;;3.98;2.12;;;;;;;;;;1750022;81;21023;-76
2022/07/03 04:58:00;;;;;;;3.00;2.27;;;;;;;;;;1746113;81;21119;-76
2022/07/03 05:00:26;;;;;;;3.40;2.02;;;;;;;;;;1745577;81;21094;-78
2022/07/03 05:02:52;;;;;;;20.70;3.27;;;;;;;;;;1750765;81;21363;-77
2022/07/03 05:05:18;;;;;;;5.87;2.37;;;;;;;;;;1747305;81;21142;-77
2022/07/03 05:07:45;;;;;;;4.55;2.20;;;;;;;;;;1740028;81;21012;-77
2022/07/03 05:10:11;;;;;;;4.00;2.20;;;;;;;;;;1744988;81;21075;-77
2022/07/03 05:12:38;;;;;;;3.33;2.10;;;;;;;;;;1741991;81;21102;-78
2022/07/03 05:15:06;;;;;;;4.45;2.08;;;;;;;;;;1738801;82;21008;-78
2022/07/03 05:17:33;;;;;;;4.12;2.02;;;;;;;;;;1739766;81;21024;-79
2022/07/03 05:22:46;;;;;;;3.60;2.10;;;;;;;;;;1741858;81;21044;-79
2022/07/03 05:25:13;;;;;;;3.05;2.02;;;;;;;;;;1738019;81;22163;-76
2022/07/03 05:27:39;;;;;;;35.33;4.10;;;;;;;;;;1740687;81;21040;-77
2022/07/03 05:30:05;;;;;;;3.00;1.90;;;;;;;;;;1738444;81;21016;-77
2022/07/03 05:32:31;;;;;;;4.03;2.12;;;;;;;;;;1741616;81;21071;-78
2022/07/03 05:34:57;;;;;;;2.92;1.90;;;;;;;;;;1741872;80;22247;-78
2022/07/03 05:37:23;;;;;;;3.20;2.20;;;;;;;;;;1713751;83;21555;-78
2022/07/03 05:39:49;;;;;;;3.02;2.00;;;;;;;;;;1706679;82;21482;-78
2022/07/03 05:42:16;;;;;;;2.75;1.90;;;;;;;;;;1692061;83;21055;-78
2022/07/03 05:47:23;;;;;;;2.67;1.72;;;;;;;;;;1712091;80;21134;-77
2022/07/03 05:49:53;;;;;;;3.65;1.90;;;;;;;;;;1701482;82;21894;-76
2022/07/03 05:52:18;;;;;;;4.20;2.12;;;;;;;;;;1705818;82;21028;-79
2022/07/03 05:54:44;;;;;;;3.40;2.25;;;;;;;;;;1707476;82;22632;-80
2022/07/03 05:57:10;;;;;;;7.83;2.30;;;;;;;;;;1706952;82;21080;-81
2022/07/03 05:59:36;;;;;;;2.20;1.80;;;;;;;;;;1707687;82;21064;-81
2022/07/03 06:02:03;;;;;;;3.60;2.20;;;;;;;;;;1698457;82;21044;-81
2022/07/03 06:04:30;;;;;;;7.20;5.47;;;;;;;;;;1707846;82;21093;-81
2022/07/03 06:06:56;;;;;;;8.15;3.85;;;;;;;;;;1707232;82;21091;-81
2022/07/03 06:09:22;;;;;;;4.37;2.40;;;;;;;;;;1699204;82;21077;-79
2022/07/03 06:11:49;;;;;;;5.60;2.45;;;;;;;;;;1699654;82;21090;-81
2022/07/03 06:14:15;;;;;;;2.95;2.17;;;;;;;;;;1696292;82;21053;-81
2022/07/03 06:16:43;;;;;;;3.17;2.08;;;;;;;;;;1706966;82;21052;-78
2022/07/03 06:19:09;;;;;;;6.10;2.72;;;;;;;;;;1705351;82;21062;-79
2022/07/03 06:21:35;;;;;;;4.62;2.45;;;;;;;;;;1702697;82;21777;-79
2022/07/03 06:24:01;;;;;;;3.62;2.00;;;;;;;;;;1708985;82;21313;-73
2022/07/03 06:26:28;;;;;;;5.40;2.10;;;;;;;;;;1703003;83;21562;-74
2022/07/03 06:28:55;;;;;;;3.00;2.40;;;;;;;;;;1706901;84;21059;-73
2022/07/03 06:31:21;;;;;;;3.75;2.40;;;;;;;;;;1701824;84;21025;-74
2022/07/03 06:33:47;;;;;;;6.22;3.10;;;;;;;;;;1669620;84;22079;-80
2022/07/03 06:36:13;;;;;;;3.58;2.50;;;;;;;;;;1700650;84;22099;-79
2022/07/03 06:38:39;;;;;;;4.25;2.70;;;;;;;;;;1699258;84;21113;-80
2022/07/03 06:41:05;;;;;;;3.83;2.33;;;;;;;;;;1707152;83;21169;-78
2022/07/03 06:43:31;;;;;;;4.47;2.67;;;;;;;;;;1700845;82;21120;-78
2022/07/03 06:45:57;;;;;;;4.22;2.60;;;;;;;;;;1692381;82;21085;-79
2022/07/03 06:48:23;;;;;;;4.00;2.50;;;;;;;;;;1680066;83;21572;-79
2022/07/03 06:50:50;;;;;;;4.67;2.60;;;;;;;;;;1678391;84;21063;-79
2022/07/03 06:53:16;;;;;;;3.40;2.45;;;;;;;;;;1681674;84;21067;-78
2022/07/03 06:55:42;;;;;;;4.33;2.58;;;;;;;;;;1684321;84;21100;-80
2022/07/03 06:58:08;;;;;;;3.40;2.35;;;;;;;;;;1684890;84;21009;-80
2022/07/03 07:00:38;;;;;;;3.72;2.65;;;;;;;;;;1680797;84;21071;-79
2022/07/03 07:03:04;;;;;;;3.95;2.90;;;;;;;;;;1681146;84;21060;-79
2022/07/03 07:05:30;;;;;;;3.22;2.37;;;;;;;;;;1677899;84;21115;-80
2022/07/03 07:07:57;;;;;;;4.33;2.85;;;;;;;;;;1686339;84;21229;-80
2022/07/03 07:10:23;;;;;;;4.53;3.37;;;;;;;;;;1677002;84;21080;-78
2022/07/03 07:12:50;;;;;;;5.20;2.72;;;;;;;;;;1679508;84;21062;-78
2022/07/03 07:15:17;;;;;;;4.97;2.83;;;;;;;;;;1690023;84;21090;-78
2022/07/03 07:17:43;;;;;;;6.35;3.58;;;;;;;;;;1679582;84;21108;-82
2022/07/03 07:31:48;;;;;;;7.50;3.27;;;;;;;;;;1723901;82;23652;-78
2022/07/03 07:34:14;;;;;;;4.67;3.08;;;;;;;;;;1736942;81;21532;-74
2022/07/03 07:36:40;;;;;;;11.03;3.70;;;;;;;;;;1708314;82;21063;-74
2022/07/03 07:39:06;;;;;;;5.05;2.98;;;;;;;;;;1736036;83;21535;-75
2022/07/03 07:41:32;;;;;;;7.62;3.70;;;;;;;;;;1740567;81;21073;-73
2022/07/03 07:44:00;;;;;;;5.75;3.30;;;;;;;;;;1734030;81;21055;-74
2022/07/03 07:46:26;;;;;;;4.10;3.33;;;;;;;;;;1759768;81;21593;-75
2022/07/03 07:48:52;;;;;;;4.62;3.22;;;;;;;;;;1749832;81;20961;-77
2022/07/03 07:51:18;;;;;;;6.78;3.37;;;;;;;;;;1735615;83;21099;-77
2022/07/03 07:53:45;;;;;;;5.90;3.37;;;;;;;;;;1735653;83;21052;-76
2022/07/03 07:56:11;;;;;;;5.05;3.45;;;;;;;;;;1734712;82;21057;-77
2022/07/03 07:58:37;;;;;;;4.90;3.42;;;;;;;;;;1736051;82;21557;-77
2022/07/03 08:06:33;;;;;;;4.50;3.40;;;;;;;;;;1734390;82;21066;-77
2022/07/03 08:08:59;;;;;;;6.67;3.70;;;;;;;;;;1737191;82;21533;-76
2022/07/03 08:11:26;;;;;;;4.70;3.55;;;;;;;;;;1738161;81;21071;-76
2022/07/03 08:13:53;;;;;;;4.42;3.20;;;;;;;;;;1738505;82;21543;-76
2022/07/03 08:16:19;;;;;;;4.90;3.60;;;;;;;;;;1738513;82;21043;-77
2022/07/03 08:18:45;;;;;;;5.47;3.40;;;;;;;;;;1738693;82;21527;-77
2022/07/03 08:21:11;;;;;;;4.50;3.37;;;;;;;;;;1738481;82;21552;-77
2022/07/03 08:23:38;;;;;;;5.35;3.37;;;;;;;;;;1736161;81;21054;-77
2022/07/03 08:26:05;;;;;;;11.20;3.77;;;;;;;;;;1733307;81;21057;-76
2022/07/03 08:28:31;;;;;;;10.13;3.60;;;;;;;;;;1738267;81;21542;-76
2022/07/03 08:30:58;;;;;;;8.95;4.00;;;;;;;;;;1742251;81;21073;-75
2022/07/03 08:33:24;;;;;;;5.67;3.62;;;;;;;;;;1740344;81;21088;-76
2022/07/03 08:35:50;;;;;;;5.00;3.40;;;;;;;;;;1744449;81;21385;-76
2022/07/03 08:38:16;;;;;;;5.17;3.40;;;;;;;;;;1741046;81;21050;-76
2022/07/03 08:40:43;;;;;;;4.50;3.50;;;;;;;;;;1714855;81;21010;-76
2022/07/03 08:43:09;;;;;;;9.70;3.92;;;;;;;;;;1744723;81;21034;-76
2022/07/03 08:45:35;;;;;;;6.80;3.83;;;;;;;;;;1735432;81;21679;-78
2022/07/03 08:48:02;;;;;;;4.28;3.40;;;;;;;;;;1742472;81;21022;-76
2022/07/03 08:50:28;;;;;;;4.72;3.60;;;;;;;;;;1741572;81;21083;-78
2022/07/03 08:52:55;;;;;;;4.70;3.15;;;;;;;;;;1735916;81;21041;-76
2022/07/03 08:55:21;;;;;;;4.00;3.60;;;;;;;;;;1739135;81;21159;-76
2022/07/03 08:57:48;;;;;;;4.60;3.33;;;;;;;;;;1743832;81;21084;-76
2022/07/03 09:00:15;;;;;;;4.22;3.27;;;;;;;;;;1739804;81;21052;-79
2022/07/03 09:02:46;;;;;;;9.30;4.03;;;;;;;;;;1738585;81;21080;-77
2022/07/03 09:05:12;;;;;;;6.55;3.80;;;;;;;;;;1740921;81;21038;-77
2022/07/03 09:07:39;;;;;;;6.90;4.20;;;;;;;;;;1741839;81;21073;-76
2022/07/03 09:10:07;;;;;;;4.92;3.60;;;;;;;;;;1737068;81;21132;-77
2022/07/03 09:12:33;;;;;;;4.97;3.83;;;;;;;;;;1737799;81;21581;-77
2022/07/03 09:15:00;;;;;;;5.53;3.83;;;;;;;;;;1743112;81;21101;-77
2022/07/03 09:17:27;;;;;;;6.03;4.08;;;;;;;;;;1734697;81;21120;-76
2022/07/03 09:19:53;;;;;;;8.50;3.65;;;;;;;;;;1741098;81;21010;-77
2022/07/03 09:22:24;;;;;;;6.40;4.10;;;;;;;;;;1739499;81;21007;-77
2022/07/03 09:24:51;;;;;;;6.17;3.80;;;;;;;;;;1743563;81;21033;-77
2022/07/03 09:27:18;;;;;;;16.32;4.78;;;;;;;;;;1742201;81;21103;-78
2022/07/03 09:29:50;;;;;;;5.28;3.58;;;;;;;;;;1745322;81;21568;-78
2022/07/03 09:32:16;;;;;;;;;;;;;;;;;;1702189;83;22110;-78
2022/07/03 09:34:43;;;;;;;7.10;3.40;;;;;;;;;;1691486;83;20122;-77
2022/07/03 09:37:09;;;;;;;4.87;3.50;;;;;;;;;;1733112;82;21037;-76
2022/07/03 09:39:36;;;;;;;5.70;3.77;;;;;;;;;;1738219;82;21031;-76
2022/07/03 09:42:06;;;;;;;5.25;3.50;;;;;;;;;;1734511;82;21101;-75
2022/07/03 09:44:45;;;;;;;7.15;3.72;;;;;;;;;;1743908;82;21064;-81
2022/07/03 09:47:12;;;;;;;4.08;3.30;;;;;;;;;;1739909;82;21067;-76
2022/07/03 09:50:02;;;;;;;6.45;3.10;;;;;;;;;;1742488;82;21055;-77
2022/07/03 09:52:39;;;;;;;10.60;9.53;;;;;;;;;;1736378;82;21000;-76
2022/07/03 09:55:11;;;;;;;5.10;3.65;;;;;;;;;;1738866;82;21510;-78
2022/07/03 09:57:37;;;;;;;4.80;3.58;;;;;;;;;;1743167;82;22242;-76
2022/07/03 10:00:22;;;;;;;3.77;2.75;;;;;;;;;;1747306;82;21054;-76
2022/07/03 10:03:05;;;;;;;7.70;3.62;;;;;;;;;;1746135;82;21036;-77
2022/07/03 10:05:32;;;;;;;3.87;3.07;;;;;;;;;;1744226;82;21580;-78
2022/07/03 10:07:59;;;;;;;4.10;3.20;;;;;;;;;;1742955;82;21156;-77
2022/07/03 10:10:26;;;;;;;3.90;2.90;;;;;;;;;;1741338;82;22171;-76
2022/07/03 10:12:53;;;;;;;5.58;3.45;;;;;;;;;;1742690;82;21079;-76
2022/07/03 10:15:19;;;;;;;4.90;3.22;;;;;;;;;;1743470;82;21036;-76
2022/07/03 10:17:48;;;;;;;4.60;3.30;;;;;;;;;;1737582;82;21554;-77
2022/07/03 10:20:14;;;;;;;8.13;3.65;;;;;;;;;;1746640;82;21073;-77
2022/07/03 10:22:42;;;;;;;5.28;3.52;;;;;;;;;;1740586;82;21287;-77
2022/07/03 10:25:09;;;;;;;4.60;3.50;;;;;;;;;;1739952;81;21524;-77
2022/07/03 10:27:36;;;;;;;4.37;3.20;;;;;;;;;;1739479;82;21099;-77
2022/07/03 10:30:02;;;;;;;5.33;3.27;;;;;;;;;;1744399;82;21058;-76
2022/07/03 10:32:28;;;;;;;7.25;3.20;;;;;;;;;;1707510;82;22270;-76
2022/07/03 10:34:55;;;;;;;3.58;2.92;;;;;;;;;;1704873;84;21008;-77
2022/07/03 10:37:21;;;;;;;6.25;3.25;;;;;;;;;;1703199;84;21545;-78
2022/07/03 10:44:45;;;;;;;4.72;3.02;;;;;;;;;;1702904;84;21070;-76
2022/07/03 10:45:13;;;;;;;4.33;3.20;;;;;;;;;;1703218;83;21135;-77
2022/07/03 10:47:41;;;;;;;4.72;3.20;;;;;;;;;;1705127;83;21050;-78
2022/07/03 10:50:10;;;;;;;4.40;2.87;;;;;;;;;;1705907;84;21102;-78
2022/07/03 10:52:37;;;;;;;5.78;3.20;;;;;;;;;;1704692;84;21088;-77
2022/07/03 10:55:06;;;;;;;5.12;3.27;;;;;;;;;;1702785;84;21027;-76
2022/07/03 10:57:34;;;;;;;4.20;3.10;;;;;;;;;;1705169;84;21063;-76
2022/07/03 11:00:03;;;;;;;4.58;3.35;;;;;;;;;;1702446;84;21045;-69
2022/07/03 11:02:43;;;;;;;5.37;3.40;;;;;;;;;;1703349;83;21139;-72
2022/07/03 11:05:09;;;;;;;3.92;3.27;;;;;;;;;;1701517;84;21042;-67
2022/07/03 11:07:44;;;;;;;8.15;3.60;;;;;;;;;;1702994;84;21099;-68
2022/07/03 11:10:12;;;;;;;6.83;3.45;;;;;;;;;;1700775;84;22134;-69
2022/07/03 11:12:58;;;;;;;4.58;3.17;;;;;;;;;;1702960;84;21558;-68
2022/07/03 11:15:34;;;;;;;7.20;3.35;;;;;;;;;;1705285;84;21081;-68
2022/07/03 11:18:02;;;;;;;7.50;3.58;;;;;;;;;;1702270;84;21098;-68
2022/07/03 11:20:29;;;;;;;4.62;3.50;;;;;;;;;;1691753;84;21151;-69
2022/07/03 11:22:57;;;;;;;5.12;3.35;;;;;;;;;;1703548;84;21035;-69
2022/07/03 11:25:23;;;;;;;6.58;3.10;;;;;;;;;;1692792;84;21088;-68
2022/07/03 11:27:49;;;;;;;4.75;3.20;;;;;;;;;;1667324;85;21042;-68
2022/07/03 11:30:16;;;;;;;5.30;3.55;;;;;;;;;;1674802;85;21050;-68
2022/07/03 11:32:50;;;;;;;5.05;3.30;;;;;;;;;;1685137;84;21120;-69
2022/07/03 11:35:32;;;;;;;7.20;3.95;;;;;;;;;;1724178;83;21071;-68
2022/07/03 11:37:58;;;;;;;4.65;3.90;;;;;;;;;;1726400;83;21097;-67
2022/07/03 11:40:25;;;;;;;6.10;3.77;;;;;;;;;;1724978;83;21015;-68
2022/07/03 11:42:51;;;;;;;4.90;4.10;;;;;;;;;;1724291;83;21588;-68
2022/07/03 11:45:17;;;;;;;5.20;3.87;;;;;;;;;;1724810;83;22205;-68
2022/07/03 11:47:43;;;;;;;7.00;4.25;;;;;;;;;;1723809;83;21557;-68
2022/07/03 11:50:09;;;;;;;5.50;4.15;;;;;;;;;;1724693;83;21338;-68
2022/07/03 11:52:35;;;;;;;5.12;4.20;;;;;;;;;;1721535;83;21042;-68
2022/07/03 11:55:02;;;;;;;7.53;4.10;;;;;;;;;;1725512;83;21094;-68
2022/07/03 11:57:28;;;;;;;7.10;4.58;;;;;;;;;;1725564;82;21102;-67
2022/07/03 11:59:56;;;;;;;10.58;4.47;;;;;;;;;;1723729;83;21135;-68
2022/07/03 12:02:23;;;;;;;6.17;4.30;;;;;;;;;;1721781;83;21038;-67
2022/07/03 12:04:49;;;;;;;6.03;4.50;;;;;;;;;;1725392;82;21070;-68
2022/07/03 12:07:15;;;;;;;7.17;4.25;;;;;;;;;;1726357;83;21071;-68
2022/07/03 12:09:43;;;;;;;10.23;4.65;;;;;;;;;;1722912;82;21571;-68
2022/07/03 12:12:10;;;;;;;6.15;4.35;;;;;;;;;;1700556;83;21544;-68
2022/07/03 12:14:45;;;;;;;7.87;3.80;;;;;;;;;;1724531;83;21047;-68
2022/07/03 12:17:19;;;;;;;7.12;4.10;;;;;;;;;;1724420;83;21038;-68
2022/07/03 12:19:50;;;;;;;6.67;3.92;;;;;;;;;;1726152;82;22189;-68
2022/07/03 12:22:29;;;;;;;8.38;3.98;;;;;;;;;;1725642;83;21063;-68
2022/07/03 12:24:57;;;;;;;5.87;4.17;;;;;;;;;;1724833;83;21039;-68
2022/07/03 12:27:24;;;;;;;6.08;4.33;;;;;;;;;;1723948;83;21110;-68
2022/07/03 12:29:51;;;;;;;6.30;4.45;;;;;;;;;;1724719;82;21941;-71
2022/07/03 12:32:17;;;;;;;6.25;4.08;;;;;;;;;;1679700;84;21149;-70
2022/07/03 12:34:43;;;;;;;6.85;4.85;;;;;;;;;;1704229;83;21095;-70
2022/07/03 12:37:09;;;;;;;7.30;4.60;;;;;;;;;;1678509;85;21423;-71
2022/07/03 12:39:46;;;;;;;8.03;4.00;;;;;;;;;;1682330;84;21093;-71
2022/07/03 12:42:18;;;;;;;5.97;4.15;;;;;;;;;;1682082;84;21122;-69
2022/07/03 12:45:03;;;;;;;5.97;4.60;;;;;;;;;;1684472;84;21090;-70
2022/07/03 12:47:30;;;;;;;5.62;4.55;;;;;;;;;;1700727;84;22442;-70
2022/07/03 12:50:03;;;;;;;4.83;4.33;;;;;;;;;;1697176;83;20992;-68
2022/07/03 12:52:29;;;;;;;;;;;;;;;;;;1698031;84;21557;-69
2022/07/03 12:54:55;;;;;;;8.43;4.58;;;;;;;;;;1697108;83;20181;-70
2022/07/03 13:00:11;;;;;;;5.08;4.28;;;;;;;;;;1703993;83;21128;-69
2022/07/03 13:02:38;;;;;;;5.45;4.60;;;;;;;;;;1694502;84;21065;-69
2022/07/03 13:05:17;;;;;;;5.97;4.75;;;;;;;;;;1695369;84;21053;-69
2022/07/03 13:07:44;;;;;;;9.13;5.05;;;;;;;;;;1700676;83;21069;-70
2022/07/03 13:10:11;;;;;;;10.90;5.22;;;;;;;;;;1695101;83;21065;-70
2022/07/03 13:12:48;;;;;;;12.20;5.42;;;;;;;;;;1707208;83;21032;-70
2022/07/03 13:15:14;;;;;;;7.47;5.65;;;;;;;;;;1692330;83;21104;-70
2022/07/03 13:17:55;;;;;;;6.33;4.78;;;;;;;;;;1690864;83;21073;-71
2022/07/03 13:20:26;;;;;;;6.83;4.70;;;;;;;;;;1691829;83;21038;-70
2022/07/03 13:22:54;;;;;;;5.47;4.37;;;;;;;;;;1697258;83;21117;-69
2022/07/03 13:25:20;;;;;;;12.07;4.30;;;;;;;;;;1698776;83;21094;-69
2022/07/03 13:27:46;;;;;;;7.30;4.10;;;;;;;;;;1696266;82;21085;-69
2022/07/03 13:30:13;;;;;;;4.90;3.87;;;;;;;;;;1708889;84;21198;-70
2022/07/03 13:32:40;;;;;;;6.75;4.55;;;;;;;;;;1710335;83;21538;-68
2022/07/03 13:35:06;;;;;;;6.42;4.40;;;;;;;;;;1684711;84;21121;-70
2022/07/03 13:37:33;;;;;;;9.78;7.10;;;;;;;;;;1683268;85;21039;-70
2022/07/03 13:40:00;;;;;;;8.80;7.17;;;;;;;;;;1684385;84;21244;-70
2022/07/03 13:42:26;;;;;;;16.05;10.05;;;;;;;;;;1740404;81;21535;-71
2022/07/03 13:44:52;;;;;;;8.28;5.70;;;;;;;;;;1718293;82;21126;-70
2022/07/03 13:47:18;;;;;;;8.20;4.50;;;;;;;;;;1738119;82;21027;-70
2022/07/03 13:49:44;;;;;;;7.17;4.40;;;;;;;;;;1723746;82;21032;-69
2022/07/03 13:52:10;;;;;;;5.80;4.20;;;;;;;;;;1765969;81;21059;-69
2022/07/03 13:54:37;;;;;;;7.95;4.87;;;;;;;;;;1758041;81;21051;-68
2022/07/03 13:57:03;;;;;;;16.48;12.45;;;;;;;;;;1745904;81;21652;-68
2022/07/03 13:59:30;;;;;;;12.65;7.65;;;;;;;;;;1748634;81;21066;-72
2022/07/03 14:01:57;;;;;;;8.15;5.30;;;;;;;;;;1733607;81;21082;-70
2022/07/03 14:04:23;;;;;;;9.38;4.83;;;;;;;;;;1746650;81;21487;-65
2022/07/03 14:06:50;;;;;;;7.45;5.10;;;;;;;;;;1767992;81;21074;-65
2022/07/03 14:09:16;;;;;;;6.05;4.60;;;;;;;;;;1768176;81;21550;-65
2022/07/03 14:11:42;;;;;;;5.47;4.22;;;;;;;;;;1753870;81;21114;-66
2022/07/03 14:14:08;;;;;;;8.20;4.35;;;;;;;;;;1739156;81;21045;-64
2022/07/03 14:16:38;;;;;;;6.22;4.33;;;;;;;;;;1741673;82;21088;-65
2022/07/03 14:19:07;;;;;;;6.87;5.30;;;;;;;;;;1739086;81;21075;-67
2022/07/03 14:21:35;;;;;;;7.62;4.80;;;;;;;;;;1746287;81;21051;-67
2022/07/03 14:24:02;;;;;;;8.23;5.00;;;;;;;;;;1732138;81;21107;-67
2022/07/03 14:34:43;;;;;;;77.32;13.25;;;;;;;;;;1748207;81;21008;-66
2022/07/03 14:37:09;;;;;;;39.48;9.40;;;;;;;;;;1757781;81;21857;-66
2022/07/03 14:39:35;;;;;;;40.48;8.33;;;;;;;;;;1749962;81;21071;-67
2022/07/03 14:42:02;;;;;;;27.25;7.30;;;;;;;;;;1753641;81;21043;-67
2022/07/03 14:44:30;;;;;;;22.48;7.22;;;;;;;;;;1758028;81;21505;-67
2022/07/03 14:46:56;;;;;;;29.07;7.70;;;;;;;;;;1760390;81;21551;-67
2022/07/03 14:49:22;;;;;;;18.23;6.28;;;;;;;;;;1731499;81;21023;-65
2022/07/03 14:51:51;;;;;;;15.13;5.87;;;;;;;;;;1755279;82;21542;-63
2022/07/03 14:54:16;;;;;;;7.35;4.85;;;;;;;;;;1747046;81;21083;-63
2022/07/03 14:56:45;;;;;;;7.40;5.62;;;;;;;;;;1742384;82;21079;-64
2022/07/03 14:59:11;;;;;;;8.35;5.35;;;;;;;;;;1748562;81;21008;-63
2022/07/03 15:01:39;;;;;;;33.92;23.30;;;;;;;;;;1741839;81;21075;-64
2022/07/03 15:04:08;;;;;;;27.30;18.45;;;;;;;;;;1740161;82;21054;-64
2022/07/03 15:06:34;;;;;;;13.32;8.95;;;;;;;;;;1746673;81;21039;-68
2022/07/03 15:09:04;;;;;;;7.67;5.50;;;;;;;;;;1743477;81;21054;-68
2022/07/03 15:14:17;;;;;;;6.75;4.53;;;;;;;;;;1740343;81;21515;-69
2022/07/03 15:16:43;;;;;;;7.72;4.80;;;;;;;;;;1744997;81;20996;-68
2022/07/03 15:19:09;;;;;;;6.58;5.12;;;;;;;;;;1740218;81;21108;-68
2022/07/03 15:21:37;;;;;;;7.08;5.30;;;;;;;;;;1739043;82;21040;-68
2022/07/03 15:24:04;;;;;;;5.97;4.42;;;;;;;;;;1739517;82;21027;-67
2022/07/03 15:26:30;;;;;;;5.35;4.37;;;;;;;;;;1745794;81;21043;-69
2022/07/03 15:29:00;;;;;;;5.95;4.42;;;;;;;;;;1755094;81;21040;-69
2022/07/03 15:31:28;;;;;;;7.78;4.70;;;;;;;;;;1742696;81;21527;-68
2022/07/03 15:33:55;;;;;;;6.33;4.75;;;;;;;;;;1746812;81;21528;-68